Time;durP1;ratioP1;P1;durP2;ratioP2;P2;SDS_P1;SDS_P2;PMS_P1;PMS_P2;Temp;Humidity;BMP_temperature;BMP_pressure;BME280_temperature;BME280_humidity;BME280_pressure;Samples;Min_cycle;Max_cycle;Signal;HPM_P1;HPM_P2
2022/01/06 00:01:03;;;;;;;;;;;;;;;5.76;52.22;99092.66;4427387;32;34344;-90
2022/01/06 00:10:12;;;;;;;;;;;;;;;6.32;51.28;99101.81;4439302;32;33865;-90
2022/01/06 00:13:00;;;;;;;;;;;;;;;5.95;50.90;99097.22;4427699;32;33832;-91
2022/01/06 00:27:47;;;;;;;;;;;;;;;5.90;52.33;99088.84;4423335;32;34839;-90
2022/01/06 00:36:49;;;;;;;;;;;;;;;5.98;52.85;99091.69;4430480;32;35464;-90
2022/01/06 00:42:42;;;;;;;;;;;;;;;6.27;51.46;99074.13;4361539;32;34902;-89
2022/01/06 00:45:10;;;;;;;;;;;;;;;6.11;52.12;99063.22;4350411;32;35250;-90
2022/01/06 00:54:12;;;;;;;;;;;;;;;6.07;51.87;99038.06;4384093;32;34817;-91
2022/01/06 01:00:03;;;;;;;;;;;;;;;6.03;52.27;99023.44;4425232;32;36205;-90
2022/01/06 01:06:01;;;;;;;;;;;;;;;6.13;52.84;99013.75;4436763;32;35738;-90
2022/01/06 01:08:41;;;;;;;;;;;;;;;6.19;51.97;99005.28;4425849;32;35422;-91
2022/01/06 01:11:09;;;;;;;;;;;;;;;5.96;52.71;99015.25;4440212;32;35471;-90
2022/01/06 01:13:53;;;;;;;;;;;;;;;6.21;51.72;99017.41;4440393;32;33099;-91
2022/01/06 01:23:25;;;;;;;;;;;;;;;5.46;53.20;99028.47;4392583;32;36315;-90
2022/01/06 01:29:19;;;;;;;;;;;;;;;5.81;53.18;99031.59;4390130;32;35703;-90
2022/01/06 01:44:45;;;;;;;;;;;;;;;5.88;53.16;99049.38;4392427;32;36060;-90
2022/01/06 01:50:36;;;;;;;;;;;;;;;5.69;53.35;99036.06;4430664;32;33320;-89
2022/01/06 01:53:11;;;;;;;;;;;;;;;5.77;53.83;99024.87;4426663;32;33978;-91
2022/01/06 01:55:40;;;;;;;;;;;;;;;5.76;53.45;99016.13;4425155;32;34223;-91
2022/01/06 01:58:08;;;;;;;;;;;;;;;5.65;54.72;99029.41;4398920;32;33207;-91
2022/01/06 02:04:01;;;;;;;;;;;;;;;5.99;53.83;99037.91;4424851;32;34824;-90
2022/01/06 02:09:53;;;;;;;;;;;;;;;6.05;53.36;99046.13;4440262;32;36240;-90
2022/01/06 02:25:41;;;;;;;;;;;;;;;5.73;53.99;99055.13;4440046;32;34177;-90
2022/01/06 02:41:29;;;;;;;;;;;;;;;5.58;54.32;99012.44;4455483;32;34938;-92
2022/01/06 02:50:09;;;;;;;;;;;;;;;5.54;54.60;99005.75;4436999;32;33369;-91
2022/01/06 02:52:40;;;;;;;;;;;;;;;5.44;55.15;99017.22;4413905;32;33879;-90
2022/01/06 02:58:32;;;;;;;;;;;;;;;5.48;54.95;99047.63;4438273;32;34281;-91
2022/01/06 03:01:02;;;;;;;;;;;;;;;5.45;54.22;99055.00;4416542;32;32904;-89
2022/01/06 03:03:31;;;;;;;;;;;;;;;5.51;54.49;99069.31;4428413;32;34054;-88
2022/01/06 03:05:58;;;;;;;;;;;;;;;5.43;54.73;99079.66;4428435;32;34404;-90
2022/01/06 03:11:54;;;;;;;;;;;;;;;5.27;55.64;99088.19;4454868;32;35022;-91
2022/01/06 03:17:48;;;;;;;;;;;;;;;5.61;54.80;99087.84;4455004;32;37069;-89
2022/01/06 03:27:04;;;;;;;;;;;;;;;5.67;54.66;99097.88;4455084;32;34843;-90
2022/01/06 03:36:31;;;;;;;;;;;;;;;5.52;54.05;99093.91;4453286;32;34104;-90
2022/01/06 03:42:00;;;;;;;;;;;;;;;5.76;54.46;99103.22;4442282;32;36044;-92
2022/01/06 03:44:29;;;;;;;;;;;;;;;5.89;53.13;99111.75;4415432;32;33494;-91
2022/01/06 03:46:57;;;;;;;;;;;;;;;6.05;52.81;99113.94;4415445;32;33441;-92
2022/01/06 03:52:19;;;;;;;;;;;;;;;5.91;53.60;99120.41;4447455;32;36157;-91
2022/01/06 03:54:51;;;;;;;;;;;;;;;5.81;53.42;99122.16;4440432;32;35146;-91
2022/01/06 04:00:42;;;;;;;;;;;;;;;5.53;53.78;99129.88;4454471;32;34873;-91
2022/01/06 04:09:50;;;;;;;;;;;;;;;5.56;54.87;99119.03;4434140;32;31816;-91
2022/01/06 04:12:17;;;;;;;;;;;;;;;5.70;54.49;99113.44;4412434;32;32883;-91
2022/01/06 04:21:21;;;;;;;;;;;;;;;5.95;53.11;99103.34;4454258;32;34155;-91
2022/01/06 04:27:13;;;;;;;;;;;;;;;6.00;53.44;99110.84;4456399;32;36030;-91
2022/01/06 04:39:40;;;;;;;;;;;;;;;5.80;53.00;99109.09;4456391;32;36865;-91
2022/01/06 04:51:09;;;;;;;;;;;;;;;5.68;53.64;99142.59;4456108;32;36968;-90
2022/01/06 04:56:49;;;;;;;;;;;;;;;5.28;54.05;99143.41;4450894;32;34153;-90
2022/01/06 05:09:00;;;;;;;;;;;;;;;5.38;54.43;99168.06;4455671;32;34143;-89
2022/01/06 05:11:29;;;;;;;;;;;;;;;5.43;54.50;99173.81;4426644;32;33787;-88
2022/01/06 05:13:56;;;;;;;;;;;;;;;5.52;54.21;99178.31;4416199;32;34839;-86
2022/01/06 05:19:37;;;;;;;;;;;;;;;5.48;54.65;99175.09;4456026;32;34870;-91
2022/01/06 05:26:01;;;;;;;;;;;;;;;5.26;55.50;99181.44;4407774;32;35914;-92
2022/01/06 05:31:53;;;;;;;;;;;;;;;5.43;54.56;99184.34;4407892;32;34040;-91
2022/01/06 05:40:30;;;;;;;;;;;;;;;5.59;54.34;99180.31;4418672;32;34752;-91
2022/01/06 05:43:05;;;;;;;;;;;;;;;5.45;54.94;99186.88;4451189;32;33654;-91
2022/01/06 05:48:27;;;;;;;;;;;;;;;5.47;54.83;99191.03;4440245;32;36197;-90
2022/01/06 05:54:09;;;;;;;;;;;;;;;5.24;55.81;99192.13;4428354;32;33896;-89
2022/01/06 05:56:39;;;;;;;;;;;;;;;4.99;56.29;99192.44;4439022;32;34199;-89
2022/01/06 06:02:35;;;;;;;;;;;;;;;5.06;56.63;99187.50;4439852;32;35411;-93
2022/01/06 06:08:36;;;;;;;;;;;;;;;4.93;57.46;99192.94;4434924;32;35673;-91
2022/01/06 06:11:05;;;;;;;;;;;;;;;4.55;58.59;99187.22;4432604;32;34670;-92
2022/01/06 06:13:33;;;;;;;;;;;;;;;5.04;57.79;99181.50;4439208;32;35043;-90
2022/01/06 06:16:01;;;;;;;;;;;;;;;4.69;58.30;99188.78;4440507;32;33158;-91
2022/01/06 06:18:30;;;;;;;;;;;;;;;4.77;58.27;99196.91;4404090;32;32740;-90
2022/01/06 06:21:00;;;;;;;;;;;;;;;4.45;58.52;99185.47;4424841;32;34686;-90
2022/01/06 06:23:31;;;;;;;;;;;;;;;4.24;59.50;99200.31;4424362;32;33811;-89
2022/01/06 06:25:59;;;;;;;;;;;;;;;4.28;59.68;99207.87;4376799;32;1092314;-87
2022/01/06 06:28:28;;;;;;;;;;;;;;;4.16;59.90;99211.44;4428095;32;34831;-88
2022/01/06 06:30:58;;;;;;;;;;;;;;;4.14;60.48;99208.09;4414522;32;34895;-90
2022/01/06 06:33:34;;;;;;;;;;;;;;;4.46;59.28;99213.47;4428981;32;34455;-89
2022/01/06 06:36:04;;;;;;;;;;;;;;;4.29;60.03;99221.84;4428891;32;32346;-89
2022/01/06 06:38:32;;;;;;;;;;;;;;;4.45;59.47;99236.31;4401893;32;34234;-90
2022/01/06 06:40:59;;;;;;;;;;;;;;;4.38;59.52;99243.06;4409607;32;34336;-88
2022/01/06 06:43:28;;;;;;;;;;;;;;;4.43;59.32;99240.88;4401116;32;33930;-90
2022/01/06 06:45:58;;;;;;;;;;;;;;;4.58;59.15;99244.97;4413791;32;33032;-89
2022/01/06 06:48:25;;;;;;;;;;;;;;;4.53;59.15;99249.75;4421442;32;34943;-89
2022/01/06 06:50:59;;;;;;;;;;;;;;;4.65;58.62;99246.16;4422198;32;35237;-88
2022/01/06 06:53:46;;;;;;;;;;;;;;;4.87;58.25;99256.69;4425630;32;33535;-89
2022/01/06 06:56:14;;;;;;;;;;;;;;;5.05;57.93;99257.84;4428791;32;32600;-90
2022/01/06 06:58:44;;;;;;;;;;;;;;;4.78;58.82;99267.09;4428434;32;33800;-90
2022/01/06 07:01:15;;;;;;;;;;;;;;;5.36;57.10;99264.94;4420482;32;35942;-90
2022/01/06 07:03:47;;;;;;;;;;;;;;;5.08;57.75;99276.03;4425919;32;34762;-89
2022/01/06 07:06:16;;;;;;;;;;;;;;;4.88;57.77;99287.34;4414906;32;33089;-90
2022/01/06 07:08:45;;;;;;;;;;;;;;;5.09;57.75;99290.91;4422994;32;32695;-88
2022/01/06 07:11:14;;;;;;;;;;;;;;;5.04;57.92;99297.50;4426665;32;36038;-90
2022/01/06 07:13:42;;;;;;;;;;;;;;;5.17;57.55;99290.31;4425714;32;34780;-89
2022/01/06 07:16:10;;;;;;;;;;;;;;;5.07;57.73;99297.28;4425032;32;32105;-89
2022/01/06 07:18:40;;;;;;;;;;;;;;;4.92;58.22;99293.22;4414370;32;33095;-89
2022/01/06 07:21:16;;;;;;;;;;;;;;;5.13;58.11;99302.03;4428446;32;35075;-89
2022/01/06 07:23:45;;;;;;;;;;;;;;;4.93;58.26;99303.62;4414515;32;34230;-87
2022/01/06 07:26:14;;;;;;;;;;;;;;;4.50;59.57;99326.38;4428417;32;33195;-89
2022/01/06 07:28:42;;;;;;;;;;;;;;;4.73;59.20;99330.69;4426045;32;32839;-89
2022/01/06 07:31:10;;;;;;;;;;;;;;;4.93;58.50;99327.34;4428546;32;35306;-89
2022/01/06 07:33:38;;;;;;;;;;;;;;;4.86;58.47;99335.84;4406805;32;34299;-88
2022/01/06 07:36:12;;;;;;;;;;;;;;;4.97;58.73;99335.84;4425471;32;32902;-89
2022/01/06 07:38:44;;;;;;;;;;;;;;;5.12;58.34;99334.62;4413874;32;33129;-89
2022/01/06 07:41:12;;;;;;;;;;;;;;;4.63;59.85;99339.44;4426858;32;35896;-89
2022/01/06 07:43:42;;;;;;;;;;;;;;;4.83;59.10;99336.91;4413679;32;33593;-89
2022/01/06 07:46:12;;;;;;;;;;;;;;;5.08;58.53;99352.50;4438430;32;33246;-89
2022/01/06 07:48:57;;;;;;;;;;;;;;;5.18;58.10;99356.09;4404202;32;34378;-89
2022/01/06 07:51:29;;;;;;;;;;;;;;;5.23;58.19;99363.63;4428669;32;34388;-89
2022/01/06 07:54:04;;;;;;;;;;;;;;;5.28;57.68;99367.56;4419057;32;34904;-89
2022/01/06 07:56:33;;;;;;;;;;;;;;;5.56;57.53;99370.53;4429004;32;32746;-88
2022/01/06 07:59:21;;;;;;;;;;;;;;;5.52;57.49;99378.81;4445250;32;34888;-89
2022/01/06 08:01:51;;;;;;;;;;;;;;;5.73;56.74;99377.94;4431553;32;35471;-89
2022/01/06 08:04:19;;;;;;;;;;;;;;;5.79;56.90;99387.19;4418465;32;33747;-90
2022/01/06 08:06:48;;;;;;;;;;;;;;;5.92;56.02;99391.34;4418969;32;33394;-89
2022/01/06 08:09:16;;;;;;;;;;;;;;;5.99;55.97;99394.31;4418455;32;34568;-89
2022/01/06 08:11:45;;;;;;;;;;;;;;;6.35;55.10;99400.03;4409361;32;34084;-88
2022/01/06 08:14:19;;;;;;;;;;;;;;;6.35;54.78;99401.84;4432200;32;33319;-89
2022/01/06 08:16:48;;;;;;;;;;;;;;;6.21;54.99;99400.34;4406126;32;31626;-89
2022/01/06 08:19:32;;;;;;;;;;;;;;;6.20;55.03;99401.31;4415955;32;33775;-90
2022/01/06 08:22:03;;;;;;;;;;;;;;;6.43;54.91;99394.13;4445611;32;34686;-89
2022/01/06 08:24:30;;;;;;;;;;;;;;;6.45;55.44;99400.94;4429878;32;33225;-89
2022/01/06 08:26:58;;;;;;;;;;;;;;;6.45;54.80;99395.66;4430712;32;32529;-90
2022/01/06 08:29:28;;;;;;;;;;;;;;;6.65;54.46;99410.72;4431044;32;34128;-89
2022/01/06 08:31:56;;;;;;;;;;;;;;;6.48;54.92;99416.56;4417844;32;35206;-90
2022/01/06 08:34:25;;;;;;;;;;;;;;;6.60;54.57;99409.44;4403151;32;33724;-89
2022/01/06 08:36:58;;;;;;;;;;;;;;;7.05;53.41;99426.66;4418452;32;31909;-90
2022/01/06 08:39:26;;;;;;;;;;;;;;;6.72;54.45;99427.72;4445111;32;34098;-90
2022/01/06 08:41:57;;;;;;;;;;;;;;;7.05;53.17;99430.16;4418864;32;34617;-88
2022/01/06 08:44:27;;;;;;;;;;;;;;;7.08;53.53;99437.00;4405020;32;34051;-90
2022/01/06 08:47:01;;;;;;;;;;;;;;;7.16;53.32;99432.72;4412984;32;33481;-90
2022/01/06 08:49:31;;;;;;;;;;;;;;;7.26;52.91;99444.16;4400743;32;33919;-88
2022/01/06 08:52:00;;;;;;;;;;;;;;;7.39;52.49;99443.97;4400673;32;36441;-89
2022/01/06 08:54:28;;;;;;;;;;;;;;;7.48;52.32;99445.81;4387812;32;36064;-90
2022/01/06 08:56:56;;;;;;;;;;;;;;;7.15;53.39;99456.62;4388251;32;32584;-89
2022/01/06 08:59:24;;;;;;;;;;;;;;;7.40;52.09;99441.19;4374900;32;32648;-88
2022/01/06 09:01:52;;;;;;;;;;;;;;;7.21;52.90;99448.19;4399713;32;36030;-90
2022/01/06 09:04:22;;;;;;;;;;;;;;;7.44;51.54;99442.59;4412413;32;35084;-89
2022/01/06 09:06:54;;;;;;;;;;;;;;;6.89;53.42;99440.34;4400431;32;32272;-89
2022/01/06 09:09:21;;;;;;;;;;;;;;;7.21;52.57;99450.84;4413640;32;33283;-90
2022/01/06 09:11:50;;;;;;;;;;;;;;;7.09;53.18;99455.34;4414043;32;36708;-89
2022/01/06 09:14:27;;;;;;;;;;;;;;;6.90;53.12;99452.59;4412780;32;33953;-89
2022/01/06 09:16:56;;;;;;;;;;;;;;;6.77;53.67;99454.59;4387831;32;32055;-89
2022/01/06 09:19:24;;;;;;;;;;;;;;;7.06;53.10;99455.62;4375260;32;32269;-89
2022/01/06 09:21:53;;;;;;;;;;;;;;;6.69;53.30;99459.69;4387886;32;34561;-90
2022/01/06 09:24:22;;;;;;;;;;;;;;;6.87;53.27;99450.22;4400540;32;33859;-89
2022/01/06 09:26:52;;;;;;;;;;;;;;;6.95;53.75;99447.78;4387673;32;32227;-89
2022/01/06 09:29:21;;;;;;;;;;;;;;;7.03;53.18;99458.53;4375223;32;33067;-89
2022/01/06 09:31:49;;;;;;;;;;;;;;;6.90;53.16;99460.53;4375267;32;35518;-89
2022/01/06 09:34:16;;;;;;;;;;;;;;;6.86;53.77;99459.13;4387548;32;34375;-90
2022/01/06 09:36:48;;;;;;;;;;;;;;;6.86;53.14;99469.69;4388831;32;34110;-90
2022/01/06 09:39:17;;;;;;;;;;;;;;;6.77;53.67;99464.31;4400280;32;34227;-89
2022/01/06 09:41:45;;;;;;;;;;;;;;;7.02;53.28;99474.53;4387396;32;35399;-90
2022/01/06 09:44:15;;;;;;;;;;;;;;;6.99;53.17;99469.50;4375776;32;32489;-90
2022/01/06 09:47:17;;;;;;;;;;;;;;;7.04;53.20;99486.66;4411357;32;31815;-91
2022/01/06 09:50:14;;;;;;;;;;;;;;;6.73;53.61;99482.25;4433468;32;33688;-91
2022/01/06 09:52:45;;;;;;;;;;;;;;;7.36;52.45;99478.62;4427138;32;34834;-91
2022/01/06 09:55:13;;;;;;;;;;;;;;;7.44;52.01;99478.81;4430024;32;36017;-90
2022/01/06 09:57:49;;;;;;;;;;;;;;;7.34;51.77;99481.41;4419305;32;34061;-91
2022/01/06 10:00:37;;;;;;;;;;;;;;;7.35;51.93;99477.78;4445007;32;34494;-91
2022/01/06 10:03:08;;;;;;;;;;;;;;;7.29;52.55;99475.66;4444228;32;34827;-91
2022/01/06 10:05:46;;;;;;;;;;;;;;;7.15;52.58;99478.66;4419327;32;33369;-88
2022/01/06 10:08:25;;;;;;;;;;;;;;;7.43;51.96;99488.53;4430729;32;32606;-89
2022/01/06 10:11:11;;;;;;;;;;;;;;;7.27;52.12;99490.00;4444241;32;34612;-91
2022/01/06 10:14:00;;;;;;;;;;;;;;;7.14;52.95;99490.19;4421765;32;35706;-90
2022/01/06 10:16:31;;;;;;;;;;;;;;;7.27;52.48;99501.41;4418641;32;35447;-89
2022/01/06 10:19:11;;;;;;;;;;;;;;;7.61;52.35;99491.41;4430717;32;33615;-91
2022/01/06 10:21:39;;;;;;;;;;;;;;;7.76;51.48;99485.63;4429026;32;33792;-90
2022/01/06 10:24:09;;;;;;;;;;;;;;;7.85;51.32;99486.62;4429666;32;34556;-89
2022/01/06 10:27:06;;;;;;;;;;;;;;;7.97;50.63;99490.84;4444683;32;34713;-90
2022/01/06 10:29:38;;;;;;;;;;;;;;;8.17;50.74;99492.56;4431160;32;32918;-90
2022/01/06 10:32:08;;;;;;;;;;;;;;;8.02;50.48;99496.59;4405520;32;33732;-93
2022/01/06 10:34:40;;;;;;;;;;;;;;;8.09;50.59;99495.06;4430789;32;35149;-87
2022/01/06 10:37:24;;;;;;;;;;;;;;;7.56;50.91;99505.03;4413120;32;35154;-89
2022/01/06 10:39:52;;;;;;;;;;;;;;;7.87;51.05;99514.66;4402809;32;32466;-88
2022/01/06 10:42:22;;;;;;;;;;;;;;;7.81;50.57;99511.72;4415255;32;34118;-88
2022/01/06 10:44:52;;;;;;;;;;;;;;;8.00;50.37;99509.12;4401545;32;34840;-88
2022/01/06 10:47:35;;;;;;;;;;;;;;;8.06;49.97;99513.87;4400488;32;35024;-87
2022/01/06 10:50:13;;;;;;;;;;;;;;;7.70;50.90;99511.78;4422862;32;33097;-87
2022/01/06 10:53:03;;;;;;;;;;;;;;;7.66;50.97;99520.97;4422380;32;34576;-87
2022/01/06 10:55:32;;;;;;;;;;;;;;;7.75;51.68;99530.78;4414682;32;35592;-87
2022/01/06 10:58:10;;;;;;;;;;;;;;;7.72;51.19;99515.97;4415791;32;35937;-87
2022/01/06 11:00:54;;;;;;;;;;;;;;;7.95;50.76;99519.28;4402763;32;32529;-87
2022/01/06 11:03:24;;;;;;;;;;;;;;;7.95;50.53;99522.78;4428966;32;34265;-87
2022/01/06 11:05:54;;;;;;;;;;;;;;;8.21;50.91;99521.31;4402359;32;34012;-87
2022/01/06 11:08:40;;;;;;;;;;;;;;;8.12;51.49;99522.09;4423484;32;33319;-87
2022/01/06 11:13:37;;;;;;;;;;;;;;;8.11;50.94;99523.09;4429065;32;33854;-88
2022/01/06 11:16:22;;;;;;;;;;;;;;;8.18;50.80;99531.31;4416354;32;35856;-88
2022/01/06 11:18:58;;;;;;;;;;;;;;;8.56;50.17;99530.47;4422518;32;34761;-87
2022/01/06 11:21:35;;;;;;;;;;;;;;;7.95;50.54;99536.03;4414698;32;32772;-87
2022/01/06 11:24:08;;;;;;;;;;;;;;;8.00;50.18;99540.91;4414341;32;34513;-87
2022/01/06 11:26:38;;;;;;;;;;;;;;;7.94;51.08;99541.44;4423577;32;35882;-87
2022/01/06 11:29:06;;;;;;;;;;;;;;;7.80;51.08;99540.00;4414102;32;35366;-87
2022/01/06 11:31:41;;;;;;;;;;;;;;;7.68;51.75;99543.72;4414854;32;33426;-87
2022/01/06 11:34:15;;;;;;;;;;;;;;;7.72;51.91;99539.81;4408132;32;32773;-87
2022/01/06 11:36:44;;;;;;;;;;;;;;;7.71;52.04;99546.09;4407173;32;33993;-87
2022/01/06 11:39:28;;;;;;;;;;;;;;;7.77;51.65;99540.28;4433157;32;34786;-88
2022/01/06 11:42:15;;;;;;;;;;;;;;;7.81;51.41;99541.66;4420099;32;32658;-87
2022/01/06 11:45:05;;;;;;;;;;;;;;;7.50;52.20;99547.94;4431518;32;34728;-87
2022/01/06 11:48:22;;;;;;;;;;;;;;;7.67;51.91;99552.63;4428741;32;34430;-87
2022/01/06 11:50:51;;;;;;;;;;;;;;;7.90;51.52;99546.16;4403512;32;33252;-86
2022/01/06 11:53:28;;;;;;;;;;;;;;;7.92;51.04;99551.34;4430103;32;32751;-87
2022/01/06 11:55:58;;;;;;;;;;;;;;;7.80;51.22;99557.69;4414355;32;34212;-87
2022/01/06 11:58:30;;;;;;;;;;;;;;;8.16;50.23;99547.38;4420089;32;35604;-87
2022/01/06 12:01:07;;;;;;;;;;;;;;;8.13;50.96;99544.16;4419154;32;34320;-87
2022/01/06 12:03:44;;;;;;;;;;;;;;;8.37;49.26;99544.69;4412747;32;32940;-88
2022/01/06 12:06:24;;;;;;;;;;;;;;;7.93;49.34;99545.06;4418867;32;33384;-87
2022/01/06 12:09:00;;;;;;;;;;;;;;;8.04;49.55;99543.16;4419268;32;35941;-86
2022/01/06 12:11:33;;;;;;;;;;;;;;;7.82;49.63;99537.22;4418696;32;34337;-87
2022/01/06 12:14:02;;;;;;;;;;;;;;;7.87;49.78;99549.09;4430269;32;33493;-87
2022/01/06 12:16:34;;;;;;;;;;;;;;;7.93;49.87;99547.72;4426553;32;34059;-87
2022/01/06 12:19:13;;;;;;;;;;;;;;;7.88;50.04;99553.41;4397690;32;34521;-88
2022/01/06 12:21:46;;;;;;;;;;;;;;;8.09;49.82;99556.00;4406838;32;33912;-87
2022/01/06 12:24:18;;;;;;;;;;;;;;;8.19;49.77;99557.72;4418914;32;33008;-88
2022/01/06 12:26:46;;;;;;;;;;;;;;;8.24;50.21;99566.13;4427685;32;32822;-87
2022/01/06 12:29:20;;;;;;;;;;;;;;;8.52;49.12;99568.81;4394458;32;33844;-87
2022/01/06 12:31:51;;;;;;;;;;;;;;;8.30;50.00;99572.69;4406836;32;33639;-87
2022/01/06 12:34:20;;;;;;;;;;;;;;;8.08;49.70;99579.00;4428561;32;32773;-89
2022/01/06 12:36:48;;;;;;;;;;;;;;;8.20;49.20;99575.31;4426509;32;34018;-86
2022/01/06 12:39:31;;;;;;;;;;;;;;;8.28;49.78;99578.12;4431958;32;34393;-87
2022/01/06 12:42:05;;;;;;;;;;;;;;;8.32;49.22;99589.28;4427273;32;34255;-87
2022/01/06 12:44:54;;;;;;;;;;;;;;;7.88;49.96;99582.53;4429545;32;33796;-87
2022/01/06 12:47:22;;;;;;;;;;;;;;;8.11;49.74;99583.19;4397301;32;32569;-87
2022/01/06 12:49:57;;;;;;;;;;;;;;;8.26;49.26;99590.66;4414847;32;34220;-87
2022/01/06 12:52:29;;;;;;;;;;;;;;;8.27;49.53;99595.00;4415580;32;34881;-87
2022/01/06 12:55:16;;;;;;;;;;;;;;;7.90;49.69;99593.84;4426459;32;32994;-87
2022/01/06 12:57:53;;;;;;;;;;;;;;;7.70;50.22;99602.66;4424704;32;34454;-88
2022/01/06 13:00:23;;;;;;;;;;;;;;;8.08;49.31;99594.03;4424093;32;34394;-88
2022/01/06 13:02:53;;;;;;;;;;;;;;;8.19;49.07;99616.03;4429535;32;35558;-88
2022/01/06 13:05:23;;;;;;;;;;;;;;;8.17;49.52;99609.12;4415328;32;33137;-88
2022/01/06 13:08:07;;;;;;;;;;;;;;;8.63;48.72;99613.78;4423862;32;33087;-86
2022/01/06 13:10:36;;;;;;;;;;;;;;;8.54;49.43;99606.63;4415508;32;35982;-87
2022/01/06 13:13:05;;;;;;;;;;;;;;;8.41;49.21;99607.88;4426988;32;33513;-87
2022/01/06 13:15:41;;;;;;;;;;;;;;;8.44;48.71;99604.97;4426113;32;32809;-88
2022/01/06 13:18:09;;;;;;;;;;;;;;;8.11;50.27;99613.16;4412313;32;33202;-88
2022/01/06 13:20:40;;;;;;;;;;;;;;;8.47;48.95;99604.66;4415290;32;35385;-87
2022/01/06 13:26:17;;;;;;;;;;;;;;;8.11;50.15;99609.69;4429563;32;33775;-86
2022/01/06 13:28:54;;;;;;;;;;;;;;;8.54;49.60;99619.87;4414792;32;34041;-87
2022/01/06 13:31:27;;;;;;;;;;;;;;;8.35;50.37;99621.66;4423523;32;34419;-89
2022/01/06 13:33:56;;;;;;;;;;;;;;;8.98;48.64;99618.59;4424901;32;34029;-88
2022/01/06 13:36:26;;;;;;;;;;;;;;;8.86;48.70;99622.34;4411764;32;32330;-87
2022/01/06 13:39:03;;;;;;;;;;;;;;;8.55;48.83;99624.25;4415566;32;34035;-87
2022/01/06 13:41:34;;;;;;;;;;;;;;;9.02;48.41;99620.84;4415941;32;35784;-87
2022/01/06 13:44:08;;;;;;;;;;;;;;;8.81;48.79;99627.22;4415248;32;34477;-87
2022/01/06 13:46:50;;;;;;;;;;;;;;;9.13;47.64;99622.50;4415507;32;33353;-88
2022/01/06 13:52:20;;;;;;;;;;;;;;;9.62;45.70;99627.66;4407451;32;34611;-88
2022/01/06 13:55:13;;;;;;;;;;;;;;;8.99;46.37;99631.69;4417618;32;34590;-87
2022/01/06 13:57:51;;;;;;;;;;;;;;;9.18;46.18;99639.69;4428799;32;31903;-88
2022/01/06 14:00:23;;;;;;;;;;;;;;;9.09;46.50;99643.16;4415434;32;33750;-89
2022/01/06 14:02:52;;;;;;;;;;;;;;;8.93;47.38;99647.34;4415042;32;35325;-89
2022/01/06 14:05:22;;;;;;;;;;;;;;;9.08;47.11;99649.44;4428898;32;34571;-87
2022/01/06 14:07:51;;;;;;;;;;;;;;;9.24;46.98;99651.53;4423080;32;32937;-88
2022/01/06 14:10:20;;;;;;;;;;;;;;;9.09;47.31;99672.34;4415679;32;34601;-88
2022/01/06 14:12:47;;;;;;;;;;;;;;;9.11;47.10;99673.09;4414915;32;35488;-87
2022/01/06 14:15:16;;;;;;;;;;;;;;;8.87;47.46;99677.91;4425079;32;34746;-89
2022/01/06 14:17:44;;;;;;;;;;;;;;;9.01;46.90;99677.53;4422012;32;32545;-88
2022/01/06 14:20:13;;;;;;;;;;;;;;;8.59;48.10;99691.06;4424285;32;34073;-87
2022/01/06 14:22:42;;;;;;;;;;;;;;;8.74;47.39;99690.59;4405588;32;34021;-88
2022/01/06 14:25:09;;;;;;;;;;;;;;;8.67;47.98;99692.09;4415145;32;33750;-87
2022/01/06 14:27:37;;;;;;;;;;;;;;;8.64;47.37;99694.19;4421209;32;34352;-87
2022/01/06 14:30:05;;;;;;;;;;;;;;;8.08;48.84;99698.22;4414614;32;33005;-87
2022/01/06 14:32:47;;;;;;;;;;;;;;;8.23;48.51;99706.69;4424794;32;35413;-87
2022/01/06 14:35:15;;;;;;;;;;;;;;;8.15;48.83;99704.69;4402447;32;34523;-89
2022/01/06 14:37:44;;;;;;;;;;;;;;;8.02;49.06;99698.72;4403440;32;30819;-91
2022/01/06 14:40:13;;;;;;;;;;;;;;;8.27;48.66;99703.66;4415184;32;33553;-86
2022/01/06 14:43:01;;;;;;;;;;;;;;;8.12;49.26;99706.75;4427904;32;34888;-86
2022/01/06 14:45:34;;;;;;;;;;;;;;;8.11;49.45;99713.84;4413751;32;34315;-86
2022/01/06 14:48:06;;;;;;;;;;;;;;;8.28;49.16;99720.41;4443091;32;33524;-86
2022/01/06 14:50:33;;;;;;;;;;;;;;;7.77;50.23;99724.78;4416730;32;33933;-86
2022/01/06 14:53:01;;;;;;;;;;;;;;;7.70;50.23;99723.59;4429817;32;35338;-86
2022/01/06 14:55:30;;;;;;;;;;;;;;;7.92;49.54;99729.63;4431192;32;36238;-86
2022/01/06 14:57:58;;;;;;;;;;;;;;;7.77;49.57;99738.00;4434413;32;34682;-84
2022/01/06 15:00:27;;;;;;;;;;;;;;;7.55;50.02;99732.84;4433667;32;33672;-85
2022/01/06 15:02:56;;;;;;;;;;;;;;;7.48;50.46;99737.81;4420137;32;35599;-85
2022/01/06 15:05:24;;;;;;;;;;;;;;;7.85;49.59;99731.09;4407242;32;35923;-85
2022/01/06 15:07:52;;;;;;;;;;;;;;;7.90;50.07;99734.22;4411884;32;34676;-86
2022/01/06 15:10:22;;;;;;;;;;;;;;;8.05;49.76;99734.72;4431787;32;34055;-85
2022/01/06 15:12:53;;;;;;;;;;;;;;;7.89;50.02;99750.22;4434240;32;34804;-85
2022/01/06 15:15:22;;;;;;;;;;;;;;;8.12;49.88;99741.19;4418025;32;34352;-87
2022/01/06 15:17:51;;;;;;;;;;;;;;;8.05;50.12;99745.31;4411300;32;32109;-85
2022/01/06 15:20:20;;;;;;;;;;;;;;;8.37;49.21;99752.25;4407748;32;33318;-87
2022/01/06 15:22:48;;;;;;;;;;;;;;;7.88;50.11;99760.00;4443604;32;36472;-86
2022/01/06 15:25:16;;;;;;;;;;;;;;;7.91;50.32;99777.44;4404485;32;33975;-86
2022/01/06 15:27:51;;;;;;;;;;;;;;;8.01;50.53;99773.06;4443855;32;32878;-86
2022/01/06 15:30:22;;;;;;;;;;;;;;;7.88;52.55;99788.28;4416783;32;33115;-86
2022/01/06 15:32:50;;;;;;;;;;;;;;;8.05;52.08;99785.06;4416880;32;35686;-87
2022/01/06 15:35:17;;;;;;;;;;;;;;;8.01;52.32;99788.94;4404392;32;33013;-89
2022/01/06 15:37:46;;;;;;;;;;;;;;;7.96;52.50;99791.97;4429474;32;31819;-87
2022/01/06 15:40:14;;;;;;;;;;;;;;;8.18;52.39;99791.00;4403102;32;33984;-86
2022/01/06 15:43:01;;;;;;;;;;;;;;;8.01;52.47;99795.06;4407420;32;34810;-87
2022/01/06 15:45:30;;;;;;;;;;;;;;;8.07;52.62;99799.88;4428928;32;33584;-86
2022/01/06 15:47:59;;;;;;;;;;;;;;;8.03;52.32;99809.03;4443247;32;33368;-87
2022/01/06 15:50:42;;;;;;;;;;;;;;;7.97;52.03;99812.19;4420018;32;34215;-87
2022/01/06 15:53:14;;;;;;;;;;;;;;;8.24;51.74;99820.53;4417608;32;33983;-86
2022/01/06 15:55:45;;;;;;;;;;;;;;;8.03;51.84;99818.78;4443567;32;34640;-86
2022/01/06 15:58:17;;;;;;;;;;;;;;;7.88;51.75;99817.41;4440852;32;33655;-87
2022/01/06 16:01:15;;;;;;;;;;;;;;;8.12;51.44;99820.69;4428645;32;32761;-87
2022/01/06 16:06:28;;;;;;;;;;;;;;;7.29;52.78;99842.63;4441976;32;34605;-87
2022/01/06 16:08:57;;;;;;;;;;;;;;;7.29;52.99;99855.84;4410135;32;31517;-87
2022/01/06 16:11:25;;;;;;;;;;;;;;;7.56;52.34;99857.09;4402045;32;32853;-87
2022/01/06 16:13:53;;;;;;;;;;;;;;;7.80;51.62;99854.28;4427084;32;35001;-87
2022/01/06 16:16:25;;;;;;;;;;;;;;;7.60;52.12;99865.66;4402518;32;33613;-87
2022/01/06 16:18:53;;;;;;;;;;;;;;;7.70;52.39;99871.87;4441017;32;33271;-88
2022/01/06 16:21:37;;;;;;;;;;;;;;;7.74;52.18;99873.31;4428479;32;32329;-87
2022/01/06 16:24:06;;;;;;;;;;;;;;;7.52;53.03;99882.16;4415982;32;34906;-86
2022/01/06 16:26:43;;;;;;;;;;;;;;;6.84;49.74;99878.81;4416973;32;34505;-87
2022/01/06 16:29:13;;;;;;;;;;;;;;;6.71;49.88;99893.94;4428380;32;32253;-87
2022/01/06 16:38:03;;;;;;;;;;;;;;;6.25;50.51;99885.16;4445269;32;34574;-89
2022/01/06 16:46:53;;;;;;;;;;;;;;;6.04;49.10;99914.97;4449797;32;37028;-87
2022/01/06 16:52:31;;;;;;;;;;;;;;;5.97;48.90;99927.78;4455250;32;32641;-87
2022/01/06 16:55:04;;;;;;;;;;;;;;;6.00;48.86;99932.00;4442790;32;34079;-87
2022/01/06 16:57:58;;;;;;;;;;;;;;;5.60;49.54;99931.38;4441292;32;34947;-87
2022/01/06 17:10:04;;;;;;;;;;;;;;;5.98;48.35;99952.41;4437341;32;36104;-86
2022/01/06 17:16:04;;;;;;;;;;;;;;;5.95;48.18;99958.75;4437385;32;34143;-86
2022/01/06 17:28:19;;;;;;;;;;;;;;;5.20;49.29;99984.41;4454921;32;34162;-86
2022/01/06 17:34:16;;;;;;;;;;;;;;;5.41;48.15;99997.91;4453512;32;35974;-85
2022/01/06 17:40:13;;;;;;;;;;;;;;;4.81;48.94;100004.78;4455799;32;34101;-86
2022/01/06 17:46:38;;;;;;;;;;;;;;;4.56;50.12;100023.16;4455689;32;37022;-86
2022/01/06 17:52:11;;;;;;;;;;;;;;;4.66;48.05;100033.00;4446755;32;34166;-87
2022/01/06 17:54:42;;;;;;;;;;;;;;;4.71;48.10;100030.87;4426949;32;34530;-86
2022/01/06 17:57:42;;;;;;;;;;;;;;;4.74;47.28;100035.09;4383260;32;36010;-87
2022/01/06 18:07:05;;;;;;;;;;;;;;;4.74;46.88;100038.59;4407450;32;34913;-87
2022/01/06 18:16:09;;;;;;;;;;;;;;;4.16;48.18;100045.13;4421297;32;34134;-87
2022/01/06 18:25:27;;;;;;;;;;;;;;;3.87;49.61;100049.59;4455443;32;35573;-88
2022/01/06 18:32:00;;;;;;;;;;;;;;;3.87;48.37;100054.84;4428649;32;34888;-87